createdAt,value
2022-09-12T00:04:42.160Z,100016.36
2022-09-12T00:09:43.828Z,100014.87
2022-09-12T00:14:45.502Z,100012.96
2022-09-12T00:19:47.992Z,100014.98
2022-09-12T00:24:49.766Z,100015.49
2022-09-12T00:29:51.846Z,100011.54
2022-09-12T00:34:53.628Z,100014.06
2022-09-12T00:39:55.739Z,100011.35
2022-09-12T00:44:57.690Z,100008.62
2022-09-12T00:50:19.635Z,100011.65
2022-09-12T00:55:21.405Z,100013.88
2022-09-12T01:00:26.928Z,100019.93
2022-09-12T01:05:30.896Z,100022.05
2022-09-12T01:10:37.375Z,100021.80
2022-09-12T01:15:40.317Z,100017.00
2022-09-12T01:21:03.351Z,100015.48
2022-09-12T01:26:27.037Z,100015.60
2022-09-12T01:31:40.689Z,100016.59
2022-09-12T01:36:54.752Z,100016.38
2022-09-12T01:42:02.670Z,100013.98
2022-09-12T01:47:19.295Z,100020.79
2022-09-12T01:52:28.339Z,100025.17
2022-09-12T01:57:42.809Z,100025.79
2022-09-12T02:02:55.132Z,100023.41
2022-09-12T02:08:30.697Z,100019.98
2022-09-12T02:13:42.821Z,100020.58
2022-09-12T02:18:50.532Z,100020.77
2022-09-12T02:23:59.063Z,100028.86
2022-09-12T02:29:01.347Z,100033.52
2022-09-12T02:34:52.069Z,100038.29
2022-09-12T02:39:56.874Z,100035.16
2022-09-12T02:44:58.895Z,100036.86
2022-09-12T02:50:01.486Z,100043.49
2022-09-12T02:55:06.032Z,100044.96
2022-09-12T03:00:09.017Z,100045.67
2022-09-12T03:05:30.259Z,100051.40
2022-09-12T03:10:50.567Z,100052.55
2022-09-12T03:16:04.485Z,100055.02
2022-09-12T03:21:33.132Z,100060.12
2022-09-12T03:26:39.309Z,100061.12
2022-09-12T03:31:49.827Z,100066.26
2022-09-12T03:36:54.978Z,100068.27
2022-09-12T03:41:57.737Z,100074.05
2022-09-12T03:46:59.718Z,100075.79
2022-09-12T03:52:01.902Z,100077.69
2022-09-12T03:57:04.084Z,100078.67
2022-09-12T04:02:06.518Z,100076.45
2022-09-12T04:07:09.887Z,100072.77
2022-09-12T04:12:13.504Z,100079.82
2022-09-12T04:17:15.790Z,100086.77
2022-09-12T04:22:17.564Z,100094.70
2022-09-12T04:27:19.748Z,100092.30
2022-09-12T04:32:22.038Z,100101.01
2022-09-12T04:37:24.225Z,100108.16
2022-09-12T04:42:26.304Z,100109.22
2022-09-12T04:47:28.387Z,100109.91
2022-09-12T04:52:30.462Z,100108.10
2022-09-12T04:57:32.236Z,100112.52
2022-09-12T05:02:34.486Z,100111.85
2022-09-12T05:07:36.400Z,100105.83
2022-09-12T05:12:38.789Z,100106.60
2022-09-12T05:17:40.563Z,100107.86
2022-09-12T05:22:42.546Z,100107.31
2022-09-12T05:27:47.440Z,100108.61
2022-09-12T05:32:52.233Z,100113.05
2022-09-12T05:37:54.007Z,100114.66
2022-09-12T05:42:57.215Z,100119.72
2022-09-12T05:47:59.195Z,100118.54
2022-09-12T05:53:01.379Z,100128.22
2022-09-12T05:58:03.257Z,100128.49
2022-09-12T06:03:04.928Z,100132.34
2022-09-12T06:08:06.701Z,100134.57
2022-09-12T06:13:08.476Z,100131.88
2022-09-12T06:18:10.249Z,100130.64
2022-09-12T06:23:12.330Z,100135.00
2022-09-12T06:28:14.514Z,100136.73
2022-09-12T06:33:17.214Z,100143.08
2022-09-12T06:38:19.395Z,100145.88
2022-09-12T06:43:21.479Z,100147.77
2022-09-12T06:48:23.661Z,100153.88
2022-09-12T06:53:26.971Z,100161.83
2022-09-12T06:58:30.180Z,100162.92
2022-09-12T07:03:33.251Z,100161.38
2022-09-12T07:08:37.009Z,100171.30
2022-09-12T07:13:40.929Z,100175.73
2022-09-12T07:18:43.630Z,100181.70
2022-09-12T07:23:46.949Z,100180.23
2022-09-12T07:29:07.954Z,100185.75
2022-09-12T07:34:14.957Z,100187.44
2022-09-12T07:39:19.776Z,100196.72
2022-09-12T07:44:22.504Z,100201.98
2022-09-12T07:49:24.274Z,100204.14
2022-09-12T07:54:26.353Z,100206.73
2022-09-12T07:59:48.879Z,100212.33
2022-09-12T08:04:50.938Z,100215.81
2022-09-12T08:09:53.386Z,100214.49
2022-09-12T08:14:55.160Z,100217.13
2022-09-12T08:19:56.989Z,100219.04
2022-09-12T08:24:58.814Z,100218.27
2022-09-12T08:30:00.585Z,100221.05
2022-09-12T08:35:03.280Z,100226.66
2022-09-12T08:40:08.918Z,100227.52
2022-09-12T08:45:10.723Z,100226.45
2022-09-12T08:50:17.278Z,100227.50
2022-09-12T08:55:25.130Z,100226.82
2022-09-12T09:00:42.566Z,100225.96
2022-09-12T09:06:02.602Z,100229.51
2022-09-12T09:11:25.966Z,100234.79
2022-09-12T09:16:32.613Z,100239.31
2022-09-12T09:21:40.659Z,100238.52
2022-09-12T09:26:45.709Z,100238.33
2022-09-12T09:31:52.874Z,100241.72
2022-09-12T09:37:18.952Z,100241.54
2022-09-12T09:42:44.073Z,100247.30
2022-09-12T09:47:52.812Z,100243.65
2022-09-12T09:52:58.893Z,100243.58
2022-09-12T09:58:00.664Z,100248.62
2022-09-12T10:03:38.481Z,100248.58
2022-09-12T10:08:41.179Z,100255.14
2022-09-12T10:13:56.571Z,100257.04
2022-09-12T10:19:03.570Z,100256.90
2022-09-12T10:24:14.459Z,100257.56
2022-09-12T10:29:25.663Z,100255.25
2022-09-12T10:34:35.923Z,100252.32
2022-09-12T10:39:38.627Z,100260.76
2022-09-12T10:44:54.056Z,100256.95
2022-09-12T10:50:22.870Z,100262.47
2022-09-12T10:55:35.457Z,100264.08
2022-09-12T11:00:47.059Z,100266.96
2022-09-12T11:05:52.263Z,100266.61
2022-09-12T11:10:59.918Z,100262.52
2022-09-12T11:16:10.857Z,100263.48
2022-09-12T11:21:46.581Z,100257.36
2022-09-12T11:27:00.659Z,100258.42
2022-09-12T11:32:18.085Z,100256.64
2022-09-12T11:37:51.191Z,100260.80
2022-09-12T11:42:55.439Z,100260.92
2022-09-12T11:48:03.966Z,100258.97
2022-09-12T11:53:20.275Z,100266.06
2022-09-12T11:58:26.563Z,100271.60
2022-09-12T12:03:37.907Z,100270.27
2022-09-12T12:08:43.006Z,100272.94
2022-09-12T12:13:55.442Z,100271.69
2022-09-12T12:19:02.117Z,100273.48
2022-09-12T12:24:07.752Z,100275.77
2022-09-12T12:29:21.747Z,100279.05
2022-09-12T12:34:44.203Z,100279.73
2022-09-12T12:39:50.464Z,100280.39
2022-09-12T12:44:52.664Z,100271.67
2022-09-12T12:50:01.407Z,100267.52
2022-09-12T12:55:05.532Z,100262.74
2022-09-12T13:00:27.786Z,100270.17
2022-09-12T13:05:46.670Z,100276.38
2022-09-12T13:10:57.449Z,100274.38
2022-09-12T13:15:59.373Z,100278.91
2022-09-12T13:21:19.428Z,100278.96
2022-09-12T13:26:27.962Z,100272.52
2022-09-12T13:31:30.199Z,100268.35
2022-09-12T13:36:55.997Z,100266.98
2022-09-12T13:42:47.421Z,100262.25
2022-09-12T13:47:58.739Z,100272.92
2022-09-12T13:53:07.623Z,100277.60
2022-09-12T13:58:21.234Z,100279.86
2022-09-12T14:03:45.943Z,100275.85
2022-09-12T14:08:48.383Z,100276.95
2022-09-12T14:13:52.239Z,100281.17
2022-09-12T14:18:54.523Z,100281.27
2022-09-12T14:23:57.325Z,100285.92
2022-09-12T14:29:01.245Z,100281.51
2022-09-12T14:34:15.213Z,100276.63
2022-09-12T14:39:21.483Z,100276.16
2022-09-12T14:44:26.125Z,100284.33
2022-09-12T14:49:29.353Z,100286.23
2022-09-12T14:54:38.589Z,100286.73
2022-09-12T14:59:41.588Z,100288.98
2022-09-12T15:04:54.903Z,100280.30
2022-09-12T15:10:02.295Z,100284.40
2022-09-12T15:15:14.882Z,100286.78
2022-09-12T15:20:17.252Z,100286.46
2022-09-12T15:25:20.152Z,100286.95
2022-09-12T15:30:22.030Z,100282.88
2022-09-12T15:35:33.329Z,100279.72
2022-09-12T15:40:35.409Z,100284.59
2022-09-12T15:45:39.230Z,100289.10
2022-09-12T15:50:41.931Z,100289.67
2022-09-12T15:55:44.723Z,100292.21
2022-09-12T16:00:47.301Z,100294.58
2022-09-12T16:05:50.618Z,100295.87
2022-09-12T16:10:59.180Z,100299.88
2022-09-12T16:16:01.809Z,100306.02
2022-09-12T16:21:04.363Z,100308.73
2022-09-12T16:26:06.847Z,100312.21
2022-09-12T16:31:12.785Z,100317.95
2022-09-12T16:36:17.757Z,100320.18
2022-09-12T16:41:24.416Z,100319.15
2022-09-12T16:46:28.547Z,100317.05
2022-09-12T16:51:33.425Z,100318.06
2022-09-12T16:56:35.202Z,100314.59
2022-09-12T17:01:38.172Z,100307.59
2022-09-12T17:06:41.411Z,100307.65
2022-09-12T17:11:44.894Z,100312.41
2022-09-12T17:16:51.457Z,100308.52
2022-09-12T17:21:54.123Z,100304.39
2022-09-12T17:26:56.917Z,100300.95
2022-09-12T17:31:59.278Z,100304.97
2022-09-12T17:37:02.011Z,100306.55
2022-09-12T17:42:05.369Z,100308.65
2022-09-12T17:47:07.895Z,100316.09
2022-09-12T17:52:10.494Z,100314.58
2022-09-12T17:57:14.005Z,100314.96
2022-09-12T18:02:18.899Z,100320.79
2022-09-12T18:07:21.964Z,100330.14
2022-09-12T18:12:28.721Z,100329.88
2022-09-12T18:17:32.993Z,100327.14
2022-09-12T18:22:35.317Z,100324.34
2022-09-12T18:27:37.655Z,100325.86
2022-09-12T18:32:41.327Z,100326.78
2022-09-12T18:37:44.694Z,100330.36
2022-09-12T18:42:52.718Z,100333.60
2022-09-12T18:48:00.740Z,100330.70
2022-09-12T18:53:03.129Z,100326.37
2022-09-12T18:58:05.724Z,100322.60
2022-09-12T19:03:10.038Z,100316.14
2022-09-12T19:08:12.120Z,100316.67
2022-09-12T19:13:14.325Z,100318.91
2022-09-12T19:18:19.775Z,100317.40
2022-09-12T19:23:24.053Z,100320.45
2022-09-12T19:28:28.126Z,100316.70
2022-09-12T19:33:30.313Z,100309.58
2022-09-12T19:38:32.702Z,100306.35
2022-09-12T19:43:34.687Z,100302.31
2022-09-12T19:48:36.865Z,100307.27
2022-09-12T19:53:39.360Z,100299.60
2022-09-12T19:58:44.310Z,100296.20
2022-09-12T20:03:48.620Z,100295.27
2022-09-12T20:08:51.346Z,100292.21
2022-09-12T20:13:54.031Z,100289.15
2022-09-12T20:19:08.713Z,100288.25
2022-09-12T20:24:13.482Z,100281.12
2022-09-12T20:29:17.999Z,100280.14
2022-09-12T20:34:21.095Z,100278.42
2022-09-12T20:39:23.286Z,100276.14
2022-09-12T20:44:25.772Z,100279.67
2022-09-12T20:49:28.058Z,100280.23
2022-09-12T20:54:31.782Z,100274.86
2022-09-12T20:59:34.794Z,100267.30
2022-09-12T21:04:36.684Z,100264.96
2022-09-12T21:09:39.341Z,100261.96
2022-09-12T21:14:41.131Z,100263.19
2022-09-12T21:19:43.001Z,100260.89
2022-09-12T21:24:44.877Z,100266.33
2022-09-12T21:29:46.652Z,100266.57
2022-09-12T21:34:48.939Z,100268.29
2022-09-12T21:39:50.742Z,100262.92
2022-09-12T21:44:53.044Z,100258.29
2022-09-12T21:49:55.083Z,100259.61
2022-09-12T21:54:57.058Z,100255.82
2022-09-12T21:59:59.343Z,100248.01
2022-09-12T22:05:01.427Z,100246.41
2022-09-12T22:10:05.045Z,100240.71
2022-09-12T22:15:29.221Z,100235.34
2022-09-12T22:20:29.385Z,100238.56
2022-09-12T22:25:31.154Z,100239.30
2022-09-12T22:30:33.747Z,100240.94
2022-09-12T22:35:36.033Z,100242.74
2022-09-12T22:40:38.015Z,100231.23
2022-09-12T22:45:42.865Z,100234.13
2022-09-12T22:50:45.564Z,100236.48
2022-09-12T22:55:47.637Z,100231.56
2022-09-12T23:00:50.208Z,100224.30
2022-09-12T23:05:53.541Z,100225.58
2022-09-12T23:11:09.038Z,100230.77
2022-09-12T23:16:24.792Z,100228.27
2022-09-12T23:21:26.920Z,100222.83
2022-09-12T23:26:29.513Z,100214.77
2022-09-12T23:31:32.777Z,100207.16
2022-09-12T23:36:34.803Z,100203.23
2022-09-12T23:41:37.713Z,100200.28
2022-09-12T23:46:40.092Z,100193.52
2022-09-12T23:51:41.866Z,100197.86
2022-09-12T23:56:43.640Z,100197.17
